createdAt,value
2019-06-26T00:00:20.009Z,11.22
2019-06-26T00:02:50.552Z,11.53
2019-06-26T00:05:20.973Z,11.12
2019-06-26T00:07:51.494Z,11.03
2019-06-26T00:10:22.018Z,10.65
2019-06-26T00:15:23.553Z,11.30
2019-06-26T00:17:53.982Z,11.73
2019-06-26T00:20:24.613Z,11.70
2019-06-26T00:22:55.038Z,12.15
2019-06-26T00:25:25.552Z,12.68
2019-06-26T00:27:55.974Z,12.63
2019-06-26T00:30:26.334Z,12.58
2019-06-26T00:32:56.773Z,12.60
2019-06-26T00:35:27.196Z,13.98
2019-06-26T00:37:57.728Z,13.00
2019-06-26T00:40:28.111Z,13.50
2019-06-26T00:42:58.551Z,13.32
2019-06-26T00:45:28.990Z,13.70
2019-06-26T00:47:59.413Z,13.30
2019-06-26T00:50:29.845Z,15.05
2019-06-26T00:53:00.232Z,14.38
2019-06-26T00:55:30.667Z,13.62
2019-06-26T00:58:01.086Z,14.20
2019-06-26T01:00:37.462Z,13.83
2019-06-26T01:03:07.899Z,13.28
2019-06-26T01:05:38.266Z,13.45
2019-06-26T01:08:08.696Z,13.78
2019-06-26T01:10:39.057Z,13.68
2019-06-26T01:13:09.591Z,13.03
2019-06-26T01:15:39.969Z,13.03
2019-06-26T01:18:10.404Z,12.65
2019-06-26T01:20:40.785Z,12.60
2019-06-26T01:23:12.330Z,12.40
2019-06-26T01:25:42.719Z,12.78
2019-06-26T01:28:13.232Z,12.28
2019-06-26T01:30:43.677Z,13.05
2019-06-26T01:33:14.033Z,12.43
2019-06-26T01:35:44.471Z,12.60
2019-06-26T01:38:14.829Z,12.45
2019-06-26T01:40:45.257Z,13.13
2019-06-26T01:43:15.642Z,12.13
2019-06-26T01:45:47.170Z,12.20
2019-06-26T01:48:17.549Z,13.13
2019-06-26T01:50:47.992Z,12.75
2019-06-26T01:53:18.421Z,12.40
2019-06-26T01:55:48.799Z,12.93
2019-06-26T01:58:19.231Z,11.97
2019-06-26T02:00:49.741Z,12.93
2019-06-26T02:03:20.188Z,12.98
2019-06-26T02:05:50.553Z,12.85
2019-06-26T02:08:20.991Z,12.47
2019-06-26T02:10:51.447Z,12.70
2019-06-26T02:13:21.821Z,11.97
2019-06-26T02:15:52.252Z,12.30
2019-06-26T02:18:39.433Z,13.58
2019-06-26T02:21:09.878Z,13.18
2019-06-26T02:23:40.248Z,13.78
2019-06-26T02:26:10.876Z,13.10
2019-06-26T02:28:41.253Z,13.15
2019-06-26T02:31:11.693Z,13.15
2019-06-26T02:33:42.050Z,13.10
2019-06-26T02:36:12.601Z,13.18
2019-06-26T02:38:42.973Z,13.50
2019-06-26T02:41:13.409Z,12.30
2019-06-26T02:43:43.793Z,13.32
2019-06-26T02:46:14.224Z,12.65
2019-06-26T02:48:44.589Z,12.80
2019-06-26T02:51:15.006Z,13.95
2019-06-26T02:53:45.392Z,12.98
2019-06-26T02:56:15.849Z,13.25
2019-06-26T02:58:46.299Z,13.78
2019-06-26T03:01:16.646Z,13.80
2019-06-26T03:03:47.092Z,13.40
2019-06-26T03:06:17.498Z,14.00
2019-06-26T03:08:47.910Z,13.90
2019-06-26T03:11:18.365Z,14.03
2019-06-26T03:13:48.776Z,14.25
2019-06-26T03:16:19.211Z,13.70
2019-06-26T03:18:49.597Z,13.65
2019-06-26T03:21:20.132Z,13.08
2019-06-26T03:23:50.496Z,13.10
2019-06-26T03:26:20.974Z,13.78
2019-06-26T03:28:51.414Z,13.83
2019-06-26T03:31:21.795Z,14.07
2019-06-26T03:33:52.330Z,14.53
2019-06-26T03:36:22.703Z,13.65
2019-06-26T03:38:53.130Z,14.47
2019-06-26T03:41:23.582Z,15.35
2019-06-26T03:43:54.174Z,14.40
2019-06-26T03:46:24.552Z,15.23
2019-06-26T03:48:54.991Z,13.78
2019-06-26T03:51:25.466Z,13.65
2019-06-26T03:53:55.890Z,13.62
2019-06-26T03:56:26.269Z,14.18
2019-06-26T03:58:56.724Z,13.88
2019-06-26T04:01:27.155Z,14.63
2019-06-26T04:03:57.704Z,14.25
2019-06-26T04:06:28.412Z,14.03
2019-06-26T04:08:58.787Z,13.28
2019-06-26T04:11:29.224Z,14.15
2019-06-26T04:13:59.589Z,14.55
2019-06-26T04:16:30.038Z,14.75
2019-06-26T04:19:00.445Z,14.65
2019-06-26T04:21:30.913Z,14.75
2019-06-26T04:24:01.293Z,15.35
2019-06-26T04:26:31.742Z,13.75
2019-06-26T04:29:02.288Z,13.38
2019-06-26T04:31:32.667Z,14.07
2019-06-26T04:34:04.381Z,13.25
2019-06-26T04:36:34.743Z,12.50
2019-06-26T04:39:07.326Z,16.90
2019-06-26T04:41:37.780Z,12.05
2019-06-26T04:44:08.160Z,11.48
2019-06-26T04:46:38.537Z,9.18
2019-06-26T04:49:09.054Z,9.58
2019-06-26T04:51:39.432Z,9.15
2019-06-26T04:54:10.953Z,8.20
2019-06-26T04:56:41.327Z,7.72
2019-06-26T04:59:11.742Z,7.47
2019-06-26T05:01:42.451Z,7.40
2019-06-26T05:04:12.906Z,7.50
2019-06-26T05:06:43.689Z,8.20
2019-06-26T05:09:14.165Z,7.70
2019-06-26T05:11:44.585Z,8.15
2019-06-26T05:14:14.970Z,7.00
2019-06-26T05:16:45.480Z,8.43
2019-06-26T05:19:15.851Z,6.78
2019-06-26T05:21:46.307Z,6.90
2019-06-26T05:24:16.731Z,7.70
2019-06-26T05:26:47.150Z,7.17
2019-06-26T05:29:17.669Z,7.65
2019-06-26T05:31:48.032Z,7.40
2019-06-26T05:34:18.455Z,8.33
2019-06-26T05:36:48.791Z,7.97
2019-06-26T05:39:19.199Z,6.97
2019-06-26T05:41:49.563Z,9.10
2019-06-26T05:44:19.981Z,8.65
2019-06-26T05:46:50.379Z,7.87
2019-06-26T05:49:20.900Z,8.28
2019-06-26T05:51:51.284Z,8.55
2019-06-26T05:54:21.720Z,7.87
2019-06-26T05:56:52.121Z,7.65
2019-06-26T05:59:22.591Z,9.95
2019-06-26T06:01:52.960Z,8.70
2019-06-26T06:04:23.397Z,7.85
2019-06-26T06:06:53.748Z,8.28
2019-06-26T06:09:24.268Z,8.85
2019-06-26T06:11:54.753Z,7.65
2019-06-26T06:14:25.192Z,7.78
2019-06-26T06:16:57.860Z,9.85
2019-06-26T06:19:28.253Z,8.80
2019-06-26T06:21:58.677Z,10.05
2019-06-26T06:24:29.062Z,10.08
2019-06-26T06:26:59.487Z,10.53
2019-06-26T06:29:30.822Z,9.78
2019-06-26T06:32:01.588Z,9.70
2019-06-26T06:34:31.938Z,9.95
2019-06-26T06:37:02.377Z,9.05
2019-06-26T06:39:32.795Z,9.70
2019-06-26T06:42:03.335Z,8.28
2019-06-26T06:44:33.766Z,9.68
2019-06-26T06:47:05.625Z,8.73
2019-06-26T06:49:36.153Z,8.95
2019-06-26T06:52:06.605Z,8.03
2019-06-26T06:54:37.120Z,9.25
2019-06-26T06:57:10.922Z,8.38
2019-06-26T06:59:42.027Z,9.78
2019-06-26T07:02:12.401Z,9.30
2019-06-26T07:04:42.839Z,8.10
2019-06-26T07:07:13.304Z,11.73
2019-06-26T07:09:43.737Z,8.15
2019-06-26T07:12:14.099Z,8.08
2019-06-26T07:14:44.497Z,8.68
2019-06-26T07:17:20.438Z,8.13
2019-06-26T07:19:47.017Z,8.73
2019-06-26T07:22:17.426Z,8.18
2019-06-26T07:24:48.412Z,7.33
2019-06-26T07:27:19.968Z,8.28
2019-06-26T07:29:50.816Z,9.75
2019-06-26T07:32:21.437Z,8.15
2019-06-26T07:34:51.816Z,8.70
2019-06-26T07:37:22.252Z,8.23
2019-06-26T07:39:55.865Z,9.20
2019-06-26T07:42:24.626Z,8.25
2019-06-26T07:44:55.006Z,8.40
2019-06-26T07:47:41.790Z,7.85
2019-06-26T07:49:57.407Z,8.13
2019-06-26T07:52:28.871Z,8.68
2019-06-26T07:54:59.365Z,9.60
2019-06-26T07:57:29.778Z,9.08
2019-06-26T08:00:00.465Z,9.45
2019-06-26T08:02:31.267Z,10.15
2019-06-26T08:05:01.713Z,9.58
2019-06-26T08:07:32.170Z,11.00
2019-06-26T08:10:02.613Z,9.18
2019-06-26T08:12:32.997Z,11.85
2019-06-26T08:15:03.901Z,10.20
2019-06-26T08:17:34.291Z,9.60
2019-06-26T08:20:05.906Z,8.45
2019-06-26T08:22:36.361Z,11.40
2019-06-26T08:25:08.498Z,8.58
2019-06-26T08:27:38.998Z,8.60
2019-06-26T08:30:11.074Z,10.43
2019-06-26T08:32:41.539Z,10.60
2019-06-26T08:35:12.151Z,9.53
2019-06-26T08:37:42.580Z,9.53
2019-06-26T08:40:15.201Z,9.75
2019-06-26T08:42:46.103Z,9.78
2019-06-26T08:45:16.734Z,8.98
2019-06-26T08:47:47.253Z,9.53
2019-06-26T08:50:17.742Z,8.13
2019-06-26T08:52:50.139Z,8.95
2019-06-26T08:55:21.146Z,9.73
2019-06-26T08:57:51.528Z,8.28
2019-06-26T09:00:22.640Z,9.05
2019-06-26T09:02:53.032Z,9.30
2019-06-26T09:05:23.451Z,9.33
2019-06-26T09:07:54.415Z,8.65
2019-06-26T09:10:24.844Z,9.30
2019-06-26T09:12:55.262Z,8.38
2019-06-26T09:15:25.616Z,9.90
2019-06-26T09:17:56.041Z,9.58
2019-06-26T09:20:40.704Z,9.45
2019-06-26T09:23:11.123Z,13.98
2019-06-26T09:25:41.531Z,9.33
2019-06-26T09:28:12.021Z,9.05
2019-06-26T09:30:42.408Z,9.45
2019-06-26T09:33:12.814Z,9.48
2019-06-26T09:35:43.187Z,9.05
2019-06-26T09:38:13.761Z,10.35
2019-06-26T09:40:44.127Z,10.50
2019-06-26T09:43:14.539Z,9.65
2019-06-26T09:45:44.922Z,9.88
2019-06-26T09:48:15.348Z,9.90
2019-06-26T09:50:45.765Z,9.68
2019-06-26T09:53:16.202Z,10.13
2019-06-26T09:55:46.673Z,10.70
2019-06-26T09:58:17.053Z,10.43
2019-06-26T10:00:47.487Z,9.35
2019-06-26T10:03:18.853Z,9.48
2019-06-26T10:05:49.280Z,9.73
2019-06-26T10:08:19.698Z,8.55
2019-06-26T10:10:50.164Z,8.80
2019-06-26T10:13:20.645Z,9.40
2019-06-26T10:15:51.772Z,9.15
2019-06-26T10:18:22.203Z,10.13
2019-06-26T10:20:52.609Z,9.25
2019-06-26T10:23:23.040Z,8.88
2019-06-26T10:25:53.480Z,10.72
2019-06-26T10:28:23.884Z,9.60
2019-06-26T10:30:55.164Z,10.03
2019-06-26T10:33:25.609Z,9.60
2019-06-26T10:35:57.385Z,9.10
2019-06-26T10:38:27.888Z,9.85
2019-06-26T10:40:58.362Z,9.75
2019-06-26T10:43:28.801Z,8.98
2019-06-26T10:46:00.696Z,9.30
2019-06-26T10:48:31.139Z,9.38
2019-06-26T10:51:01.498Z,9.80
2019-06-26T10:53:31.932Z,9.05
2019-06-26T10:56:02.290Z,10.40
2019-06-26T10:58:32.713Z,9.48
2019-06-26T11:01:03.109Z,9.78
2019-06-26T11:03:33.528Z,8.90
2019-06-26T11:06:04.490Z,10.30
2019-06-26T11:11:05.310Z,9.85
2019-06-26T11:13:35.713Z,9.98
2019-06-26T11:16:06.072Z,9.38
2019-06-26T11:18:36.504Z,9.60
2019-06-26T11:21:06.881Z,10.28
2019-06-26T11:23:37.303Z,10.35
2019-06-26T11:26:07.731Z,10.72
2019-06-26T11:28:38.151Z,9.40
2019-06-26T11:31:08.517Z,9.50
2019-06-26T11:33:38.953Z,9.75
2019-06-26T11:36:09.310Z,8.98
2019-06-26T11:38:39.735Z,9.10
2019-06-26T11:41:10.094Z,8.58
2019-06-26T11:43:40.525Z,10.35
2019-06-26T11:46:10.980Z,10.35
2019-06-26T11:48:41.381Z,9.40
2019-06-26T11:51:11.805Z,9.60
2019-06-26T11:53:42.226Z,10.32
2019-06-26T11:56:12.736Z,10.15
2019-06-26T11:58:43.175Z,9.90
2019-06-26T12:01:13.545Z,9.38
2019-06-26T12:03:43.964Z,8.88
2019-06-26T12:06:19.047Z,8.75
2019-06-26T12:08:46.435Z,8.90
2019-06-26T12:11:16.837Z,9.20
2019-06-26T12:13:48.203Z,8.60
2019-06-26T12:16:18.635Z,10.10
2019-06-26T12:18:48.991Z,9.83
2019-06-26T12:21:19.419Z,10.60
2019-06-26T12:23:49.788Z,10.05
2019-06-26T12:26:20.208Z,9.80
2019-06-26T12:28:50.605Z,10.00
2019-06-26T12:31:21.132Z,10.03
2019-06-26T12:33:51.512Z,9.95
2019-06-26T12:36:21.927Z,8.83
2019-06-26T12:38:52.339Z,9.60
2019-06-26T12:41:22.742Z,9.70
2019-06-26T12:43:53.264Z,9.38
2019-06-26T12:46:23.874Z,9.35
2019-06-26T12:48:54.304Z,9.50
2019-06-26T12:51:24.727Z,8.63
2019-06-26T12:53:58.343Z,9.05
2019-06-26T12:56:27.222Z,9.45
2019-06-26T12:58:59.874Z,9.65
2019-06-26T13:01:29.667Z,9.35
2019-06-26T13:04:00.140Z,10.85
2019-06-26T13:06:30.528Z,8.43
2019-06-26T13:09:01.009Z,9.75
2019-06-26T13:11:34.019Z,9.65
2019-06-26T13:14:05.937Z,8.88
2019-06-26T13:19:06.868Z,9.30
2019-06-26T13:21:37.384Z,8.38
2019-06-26T13:24:07.895Z,9.53
2019-06-26T13:26:38.365Z,8.80
2019-06-26T13:29:09.916Z,8.50
2019-06-26T13:31:40.768Z,9.00
2019-06-26T13:34:11.185Z,8.33
2019-06-26T13:36:41.600Z,8.78
2019-06-26T13:39:12.020Z,8.55
2019-06-26T13:41:42.893Z,8.55
2019-06-26T13:44:13.261Z,8.58
2019-06-26T13:46:43.694Z,8.40
2019-06-26T13:49:16.524Z,8.35
2019-06-26T13:51:46.165Z,8.73
2019-06-26T13:54:16.649Z,8.90
2019-06-26T13:56:47.003Z,9.85
2019-06-26T13:59:17.503Z,8.83
2019-06-26T14:01:47.972Z,9.50
2019-06-26T14:04:18.378Z,9.35
2019-06-26T14:06:48.737Z,8.40
2019-06-26T14:09:20.347Z,8.03
2019-06-26T14:11:50.762Z,8.08
2019-06-26T14:14:22.293Z,9.05
2019-06-26T14:16:53.148Z,8.93
2019-06-26T14:19:26.774Z,9.13
2019-06-26T14:21:56.559Z,8.28
2019-06-26T14:24:26.937Z,9.50
2019-06-26T14:26:58.662Z,8.98
2019-06-26T14:29:29.032Z,9.25
2019-06-26T14:31:59.464Z,9.78
2019-06-26T14:34:30.813Z,9.35
2019-06-26T14:37:01.230Z,8.83
2019-06-26T14:39:31.688Z,8.75
2019-06-26T14:42:02.171Z,9.15
2019-06-26T14:44:32.513Z,9.23
2019-06-26T14:47:03.092Z,9.38
2019-06-26T14:49:33.469Z,9.45
2019-06-26T14:52:03.912Z,9.13
2019-06-26T14:54:34.292Z,9.78
2019-06-26T14:57:04.740Z,10.48
2019-06-26T14:59:35.106Z,9.70
2019-06-26T15:02:05.540Z,11.83
2019-06-26T15:04:35.909Z,14.95
2019-06-26T15:07:06.334Z,10.05
2019-06-26T15:09:36.712Z,10.10
2019-06-26T15:12:07.250Z,9.55
2019-06-26T15:14:37.636Z,10.18
2019-06-26T15:17:08.064Z,10.65
2019-06-26T15:19:38.736Z,9.60
2019-06-26T15:22:09.089Z,10.20
2019-06-26T15:24:40.515Z,9.65
2019-06-26T15:29:40.634Z,11.33
2019-06-26T15:32:11.012Z,9.95
2019-06-26T15:34:41.440Z,9.90
2019-06-26T15:37:11.807Z,9.85
2019-06-26T15:39:42.245Z,9.65
2019-06-26T15:42:12.600Z,10.55
2019-06-26T15:44:43.043Z,10.25
2019-06-26T15:47:13.465Z,10.63
2019-06-26T15:49:44.064Z,11.83
2019-06-26T15:52:15.764Z,10.35
2019-06-26T15:54:46.482Z,10.78
2019-06-26T15:57:16.866Z,10.23
2019-06-26T15:59:47.395Z,11.03
2019-06-26T16:02:17.828Z,9.38
2019-06-26T16:04:50.024Z,9.28
2019-06-26T16:07:20.453Z,9.28
2019-06-26T16:09:50.862Z,9.80
2019-06-26T16:12:21.277Z,9.88
2019-06-26T16:14:51.706Z,10.40
2019-06-26T16:17:35.666Z,10.20
2019-06-26T16:20:08.952Z,9.68
2019-06-26T16:22:43.632Z,10.23
2019-06-26T16:25:18.593Z,10.82
2019-06-26T16:28:04.358Z,10.88
2019-06-26T16:30:21.216Z,11.50
2019-06-26T16:32:51.664Z,11.68
2019-06-26T16:35:22.073Z,10.70
2019-06-26T16:37:52.516Z,9.50
2019-06-26T16:40:22.864Z,9.65
2019-06-26T16:42:53.344Z,9.83
2019-06-26T16:45:23.691Z,10.48
2019-06-26T16:47:54.120Z,10.00
2019-06-26T16:50:25.229Z,9.90
2019-06-26T16:52:55.644Z,10.72
2019-06-26T16:55:27.329Z,9.90
2019-06-26T16:57:57.683Z,9.33
2019-06-26T17:00:28.107Z,9.13
2019-06-26T17:02:58.478Z,9.03
2019-06-26T17:05:28.896Z,9.60
2019-06-26T17:07:59.365Z,9.33
2019-06-26T17:10:29.771Z,9.80
2019-06-26T17:13:00.146Z,10.53
2019-06-26T17:15:30.615Z,10.20
2019-06-26T17:18:01.016Z,9.75
2019-06-26T17:20:31.433Z,9.85
2019-06-26T17:23:06.271Z,9.08
2019-06-26T17:25:33.831Z,9.95
2019-06-26T17:28:04.188Z,11.45
2019-06-26T17:30:34.635Z,9.98
2019-06-26T17:33:05.011Z,8.90
2019-06-26T17:35:35.429Z,9.63
2019-06-26T17:38:05.893Z,9.58
2019-06-26T17:40:36.422Z,9.45
2019-06-26T17:43:12.316Z,9.03
2019-06-26T17:45:38.869Z,9.03
2019-06-26T17:48:09.231Z,8.93
2019-06-26T17:50:39.637Z,9.38
2019-06-26T17:53:21.088Z,9.05
2019-06-26T17:55:43.257Z,9.50
2019-06-26T17:58:13.669Z,10.00
2019-06-26T18:00:44.054Z,8.83
2019-06-26T18:03:23.596Z,9.03
2019-06-26T18:05:54.605Z,8.80
2019-06-26T18:08:25.014Z,9.38
2019-06-26T18:10:55.383Z,9.70
2019-06-26T18:13:25.833Z,11.60
2019-06-26T18:15:56.282Z,9.55
2019-06-26T18:18:28.157Z,9.70
2019-06-26T18:20:58.577Z,9.50
2019-06-26T18:23:37.946Z,8.83
2019-06-26T18:26:12.339Z,10.00
2019-06-26T18:28:34.112Z,9.63
2019-06-26T18:31:05.240Z,9.63
2019-06-26T18:33:36.797Z,10.08
2019-06-26T18:36:07.258Z,9.45
2019-06-26T18:38:38.830Z,8.90
2019-06-26T18:41:09.231Z,9.88
2019-06-26T18:43:41.071Z,10.30
2019-06-26T18:46:15.176Z,9.60
2019-06-26T18:48:46.039Z,10.25
2019-06-26T18:53:53.543Z,9.80
2019-06-26T18:56:24.375Z,10.28
2019-06-26T19:01:24.340Z,11.83
2019-06-26T19:03:55.271Z,10.50
2019-06-26T19:06:27.126Z,11.00
2019-06-26T19:08:57.590Z,11.80
2019-06-26T19:11:27.965Z,10.78
2019-06-26T19:13:58.386Z,9.88
2019-06-26T19:16:28.790Z,12.63
2019-06-26T19:18:59.168Z,14.75
2019-06-26T19:21:29.597Z,13.38
2019-06-26T19:24:09.470Z,12.82
2019-06-26T19:29:01.998Z,13.43
2019-06-26T19:31:32.560Z,12.70
2019-06-26T19:34:02.984Z,13.85
2019-06-26T19:36:49.010Z,17.17
2019-06-26T19:41:36.651Z,13.18
2019-06-26T19:44:08.994Z,14.70
2019-06-26T19:49:10.076Z,16.35
2019-06-26T19:51:40.437Z,17.10
2019-06-26T19:54:26.084Z,19.62
2019-06-26T19:59:13.066Z,17.87
2019-06-26T20:01:43.423Z,18.60
2019-06-26T20:04:13.869Z,16.25
2019-06-26T20:06:44.466Z,15.98
2019-06-26T20:09:14.891Z,16.67
2019-06-26T20:11:45.476Z,19.30
2019-06-26T20:14:15.910Z,16.17
2019-06-26T20:16:46.341Z,15.28
2019-06-26T20:19:17.862Z,15.90
2019-06-26T20:21:48.366Z,14.35
2019-06-26T20:24:18.817Z,15.55
2019-06-26T20:26:49.178Z,15.72
2019-06-26T20:29:19.604Z,14.43
2019-06-26T20:31:50.001Z,14.03
2019-06-26T20:34:20.424Z,13.48
2019-06-26T20:36:50.816Z,13.30
2019-06-26T20:39:26.947Z,13.50
2019-06-26T20:42:03.689Z,12.75
2019-06-26T20:44:34.924Z,13.65
2019-06-26T20:47:05.305Z,13.85
2019-06-26T20:49:52.717Z,14.53
2019-06-26T20:52:24.036Z,13.70
2019-06-26T20:55:02.025Z,14.13
2019-06-26T20:57:32.048Z,14.35
2019-06-26T21:00:02.501Z,12.95
2019-06-26T21:02:34.959Z,13.88
2019-06-26T21:05:07.894Z,11.83
2019-06-26T21:07:38.324Z,12.15
2019-06-26T21:10:10.061Z,12.33
2019-06-26T21:12:40.445Z,12.82
2019-06-26T21:15:12.004Z,12.55
2019-06-26T21:17:42.486Z,12.20
2019-06-26T21:20:12.926Z,18.57
2019-06-26T21:22:43.305Z,16.30
2019-06-26T21:25:19.133Z,13.58
2019-06-26T21:27:45.914Z,12.53
2019-06-26T21:30:16.568Z,12.23
2019-06-26T21:32:46.923Z,12.18
2019-06-26T21:35:17.347Z,12.90
2019-06-26T21:37:47.708Z,13.30
2019-06-26T21:40:18.244Z,14.38
2019-06-26T21:42:48.616Z,13.22
2019-06-26T21:45:21.136Z,14.18
2019-06-26T21:47:51.502Z,13.48
2019-06-26T21:50:21.921Z,14.53
2019-06-26T21:52:52.309Z,13.65
2019-06-26T21:55:33.792Z,14.05
2019-06-26T21:58:14.147Z,14.25
2019-06-26T22:01:02.602Z,15.60
2019-06-26T22:03:50.874Z,14.65
2019-06-26T22:06:26.266Z,14.20
2019-06-26T22:09:14.017Z,15.43
2019-06-26T22:11:46.242Z,13.93
2019-06-26T22:14:16.611Z,14.68
2019-06-26T22:16:47.148Z,15.20
2019-06-26T22:19:17.533Z,15.30
2019-06-26T22:21:47.990Z,14.53
2019-06-26T22:24:18.431Z,15.50
2019-06-26T22:26:48.873Z,15.53
2019-06-26T22:29:19.248Z,15.43
2019-06-26T22:31:49.670Z,16.87
2019-06-26T22:34:20.092Z,15.95
2019-06-26T22:36:52.182Z,16.23
2019-06-26T22:39:22.519Z,15.50
2019-06-26T22:41:52.888Z,14.58
2019-06-26T22:44:23.335Z,15.65
2019-06-26T22:46:53.704Z,16.67
2019-06-26T22:49:25.344Z,16.45
2019-06-26T22:51:55.724Z,16.30
2019-06-26T22:54:26.136Z,15.93
2019-06-26T22:56:56.504Z,16.32
2019-06-26T22:59:26.927Z,16.20
2019-06-26T23:01:58.590Z,16.55
2019-06-26T23:04:29.032Z,16.67
2019-06-26T23:06:59.392Z,17.10
2019-06-26T23:09:29.819Z,17.07
2019-06-26T23:12:00.201Z,16.77
2019-06-26T23:14:30.646Z,17.25
2019-06-26T23:17:01.110Z,16.93
2019-06-26T23:19:31.549Z,17.65
2019-06-26T23:22:01.974Z,17.77
2019-06-26T23:24:32.335Z,17.92
2019-06-26T23:27:02.754Z,18.90
2019-06-26T23:29:33.141Z,18.27
2019-06-26T23:32:03.610Z,19.20
2019-06-26T23:34:34.105Z,19.45
2019-06-26T23:37:04.583Z,18.87
2019-06-26T23:39:36.165Z,18.70
2019-06-26T23:42:06.590Z,18.48
2019-06-26T23:44:37.066Z,18.27
2019-06-26T23:47:07.485Z,17.98
2019-06-26T23:49:37.854Z,18.70
2019-06-26T23:52:08.295Z,18.77
2019-06-26T23:54:38.679Z,18.75
2019-06-26T23:57:09.233Z,19.15
2019-06-26T23:59:39.613Z,18.82
